createdAt,value
2017-09-29T00:00:11.331Z,97613.86
2017-09-29T00:02:38.826Z,97618.91
2017-09-29T00:05:06.276Z,97614.67
2017-09-29T00:07:33.692Z,97612.48
2017-09-29T00:10:01.454Z,97619.55
2017-09-29T00:12:29.243Z,97620.80
2017-09-29T00:14:56.671Z,97616.37
2017-09-29T00:17:24.087Z,97613.42
2017-09-29T00:19:51.580Z,97614.38
2017-09-29T00:22:18.989Z,97619.34
2017-09-29T00:24:46.430Z,97615.31
2017-09-29T00:27:13.970Z,97609.64
2017-09-29T00:29:41.393Z,97616.37
2017-09-29T00:32:08.798Z,97612.91
2017-09-29T00:34:36.256Z,97615.64
2017-09-29T00:37:03.671Z,97613.66
2017-09-29T00:39:31.114Z,97611.86
2017-09-29T00:41:58.555Z,97617.44
2017-09-29T00:44:26.196Z,97616.63
2017-09-29T00:46:53.607Z,97616.41
2017-09-29T00:49:21.483Z,97617.98
2017-09-29T00:51:49.505Z,97617.02
2017-09-29T00:54:16.979Z,97618.94
2017-09-29T00:56:45.088Z,97612.72
2017-09-29T00:59:12.508Z,97616.83
2017-09-29T01:01:39.919Z,97613.97
2017-09-29T01:04:07.381Z,97617.47
2017-09-29T01:06:34.782Z,97617.66
2017-09-29T01:09:02.191Z,97613.02
2017-09-29T01:11:29.649Z,97604.80
2017-09-29T01:13:57.095Z,97607.66
2017-09-29T01:16:24.546Z,97602.48
2017-09-29T01:18:52.062Z,97601.33
2017-09-29T01:21:19.487Z,97597.73
2017-09-29T01:23:47.028Z,97600.89
2017-09-29T01:26:14.536Z,97599.52
2017-09-29T01:28:42.047Z,97596.78
2017-09-29T01:31:09.449Z,97592.67
2017-09-29T01:33:37.038Z,97589.11
2017-09-29T01:36:04.493Z,97589.62
2017-09-29T01:38:31.955Z,97591.63
2017-09-29T01:40:59.491Z,97584.27
2017-09-29T01:43:26.922Z,97581.95
2017-09-29T01:45:54.618Z,97584.27
2017-09-29T01:48:22.480Z,97587.95
2017-09-29T01:50:49.889Z,97587.83
2017-09-29T01:53:17.348Z,97588.38
2017-09-29T01:55:44.795Z,97585.09
2017-09-29T01:58:12.253Z,97583.32
2017-09-29T02:00:39.657Z,97585.09
2017-09-29T02:03:07.245Z,97590.81
2017-09-29T02:05:34.653Z,97589.44
2017-09-29T02:08:02.073Z,97589.75
2017-09-29T02:10:29.697Z,97587.09
2017-09-29T02:12:57.109Z,97584.99
2017-09-29T02:15:24.535Z,97587.86
2017-09-29T02:17:52.010Z,97588.28
2017-09-29T02:23:12.183Z,97584.78
2017-09-29T02:25:39.605Z,97583.84
2017-09-29T02:28:07.015Z,97587.64
2017-09-29T02:30:34.503Z,97588.28
2017-09-29T02:33:02.081Z,97590.08
2017-09-29T02:35:29.494Z,97589.84
2017-09-29T02:37:57.341Z,97591.76
2017-09-29T02:40:24.779Z,97584.05
2017-09-29T02:42:52.309Z,97574.88
2017-09-29T02:45:20.105Z,97577.11
2017-09-29T02:47:47.576Z,97582.38
2017-09-29T02:50:15.006Z,97576.46
2017-09-29T02:52:42.479Z,97578.48
2017-09-29T02:55:09.891Z,97576.89
2017-09-29T02:57:38.344Z,97572.77
2017-09-29T03:00:08.035Z,97570.16
2017-09-29T03:02:37.157Z,97570.34
2017-09-29T03:05:06.367Z,97561.94
2017-09-29T03:07:33.825Z,97567.20
2017-09-29T03:10:01.239Z,97569.73
2017-09-29T03:12:28.707Z,97567.51
2017-09-29T03:14:56.540Z,97572.59
2017-09-29T03:17:23.957Z,97558.98
2017-09-29T03:19:51.371Z,97559.28
2017-09-29T03:22:18.901Z,97556.97
2017-09-29T03:24:46.568Z,97555.17
2017-09-29T03:27:13.980Z,97557.39
2017-09-29T03:29:41.430Z,97557.61
2017-09-29T03:32:08.859Z,97558.55
2017-09-29T03:34:36.266Z,97558.34
2017-09-29T03:37:03.800Z,97558.89
2017-09-29T03:39:31.217Z,97563.72
2017-09-29T03:41:58.620Z,97554.86
2017-09-29T03:44:26.079Z,97551.18
2017-09-29T03:46:53.492Z,97554.44
2017-09-29T03:49:20.898Z,97551.18
2017-09-29T03:51:53.927Z,97549.50
2017-09-29T03:54:23.543Z,97550.23
2017-09-29T03:56:51.955Z,97545.39
2017-09-29T03:59:21.353Z,97541.92
2017-09-29T04:01:48.768Z,97544.84
2017-09-29T04:04:16.178Z,97545.39
2017-09-29T04:06:43.895Z,97550.57
2017-09-29T04:09:11.306Z,97554.98
2017-09-29T04:11:38.720Z,97551.82
2017-09-29T04:14:06.172Z,97549.94
2017-09-29T04:16:33.599Z,97544.42
2017-09-29T04:19:01.023Z,97548.41
2017-09-29T04:21:28.765Z,97546.77
2017-09-29T04:23:56.296Z,97545.27
2017-09-29T04:26:23.850Z,97546.86
2017-09-29T04:28:51.477Z,97542.62
2017-09-29T04:31:18.909Z,97545.58
2017-09-29T04:33:46.327Z,97544.61
2017-09-29T04:36:13.884Z,97546.31
2017-09-29T04:38:41.303Z,97554.34
2017-09-29T04:41:08.728Z,97562.33
2017-09-29T04:43:36.457Z,97562.97
2017-09-29T04:46:03.914Z,97563.46
2017-09-29T04:48:31.318Z,97567.39
2017-09-29T04:50:58.777Z,97573.18
2017-09-29T04:53:26.196Z,97567.27
2017-09-29T04:55:53.740Z,97572.66
2017-09-29T04:58:21.239Z,97579.84
2017-09-29T05:00:48.661Z,97592.06
2017-09-29T05:03:16.149Z,97587.73
2017-09-29T05:05:43.598Z,97587.73
2017-09-29T05:08:11.015Z,97595.31
2017-09-29T05:10:39.387Z,97591.84
2017-09-29T05:13:06.911Z,97594.92
2017-09-29T05:15:34.339Z,97590.39
2017-09-29T05:18:01.747Z,97587.44
2017-09-29T05:20:29.342Z,97583.31
2017-09-29T05:22:56.823Z,97590.29
2017-09-29T05:25:24.260Z,97583.74
2017-09-29T05:27:52.214Z,97586.16
2017-09-29T05:30:19.668Z,97579.73
2017-09-29T05:32:47.159Z,97581.62
2017-09-29T05:35:15.002Z,97585.48
2017-09-29T05:37:42.464Z,97588.66
2017-09-29T05:40:09.870Z,97593.63
2017-09-29T05:42:37.671Z,97599.63
2017-09-29T05:45:05.084Z,97593.63
2017-09-29T05:47:32.498Z,97597.83
2017-09-29T05:50:00.161Z,97600.69
2017-09-29T05:52:27.574Z,97601.54
2017-09-29T05:54:54.990Z,97602.08
2017-09-29T05:57:22.584Z,97606.83
2017-09-29T05:59:50.079Z,97607.26
2017-09-29T06:02:17.492Z,97611.45
2017-09-29T06:04:45.420Z,97617.34
2017-09-29T06:07:12.856Z,97615.36
2017-09-29T06:09:40.274Z,97621.03
2017-09-29T06:12:07.741Z,97618.10
2017-09-29T06:14:35.174Z,97617.25
2017-09-29T06:17:02.754Z,97616.85
2017-09-29T06:19:30.553Z,97621.27
2017-09-29T06:21:58.006Z,97614.94
2017-09-29T06:24:25.490Z,97619.98
2017-09-29T06:26:52.949Z,97615.27
2017-09-29T06:29:20.395Z,97622.85
2017-09-29T06:31:47.805Z,97624.73
2017-09-29T06:34:15.382Z,97628.85
2017-09-29T06:36:42.828Z,97627.08
2017-09-29T06:39:10.236Z,97626.05
2017-09-29T06:41:37.707Z,97629.91
2017-09-29T06:44:05.619Z,97628.23
2017-09-29T06:46:33.036Z,97621.59
2017-09-29T06:49:00.486Z,97630.55
2017-09-29T06:51:27.899Z,97633.20
2017-09-29T06:53:55.446Z,97636.03
2017-09-29T06:56:23.013Z,97634.78
2017-09-29T06:58:50.428Z,97642.70
2017-09-29T07:01:17.842Z,97648.06
2017-09-29T07:03:45.290Z,97643.52
2017-09-29T07:06:12.725Z,97654.61
2017-09-29T07:08:40.145Z,97655.46
2017-09-29T07:11:07.614Z,97651.01
2017-09-29T07:13:35.087Z,97651.01
2017-09-29T07:16:02.496Z,97645.65
2017-09-29T07:18:30.338Z,97649.33
2017-09-29T07:20:57.789Z,97651.64
2017-09-29T07:23:25.205Z,97660.21
2017-09-29T07:25:54.406Z,97656.49
2017-09-29T07:28:23.539Z,97656.19
2017-09-29T07:30:53.273Z,97657.12
2017-09-29T07:33:20.898Z,97651.13
2017-09-29T07:35:48.321Z,97661.24
2017-09-29T07:38:15.743Z,97659.78
2017-09-29T07:40:43.227Z,97655.36
2017-09-29T07:43:10.641Z,97656.09
2017-09-29T07:45:38.099Z,97656.61
2017-09-29T07:48:05.854Z,97653.02
2017-09-29T07:50:33.281Z,97654.09
2017-09-29T07:53:00.690Z,97662.31
2017-09-29T07:55:28.223Z,97662.31
2017-09-29T07:57:55.689Z,97658.84
2017-09-29T08:00:23.100Z,97660.73
2017-09-29T08:02:50.553Z,97661.16
2017-09-29T08:05:18.063Z,97658.41
2017-09-29T08:07:45.480Z,97655.67
2017-09-29T08:10:13.649Z,97652.30
2017-09-29T08:12:41.095Z,97655.67
2017-09-29T08:15:09.363Z,97645.77
2017-09-29T08:17:36.841Z,97648.20
2017-09-29T08:20:05.185Z,97648.08
2017-09-29T08:22:32.639Z,97649.88
2017-09-29T08:25:00.136Z,97642.91
2017-09-29T08:27:27.659Z,97646.81
2017-09-29T08:29:55.131Z,97642.70
2017-09-29T08:32:22.588Z,97644.07
2017-09-29T08:34:50.000Z,97646.50
2017-09-29T08:37:17.399Z,97646.08
2017-09-29T08:39:45.165Z,97651.44
2017-09-29T08:42:12.582Z,97647.02
2017-09-29T08:44:40.014Z,97643.42
2017-09-29T08:47:07.450Z,97637.55
2017-09-29T08:49:35.107Z,97633.63
2017-09-29T08:52:02.548Z,97636.91
2017-09-29T08:54:29.995Z,97634.69
2017-09-29T08:56:57.411Z,97639.22
2017-09-29T08:59:24.824Z,97632.16
2017-09-29T09:01:52.722Z,97629.02
2017-09-29T09:04:20.135Z,97626.34
2017-09-29T09:06:47.642Z,97628.45
2017-09-29T09:09:15.113Z,97620.66
2017-09-29T09:11:42.543Z,97614.74
2017-09-29T09:14:09.972Z,97617.71
2017-09-29T09:16:37.434Z,97613.31
2017-09-29T09:19:04.841Z,97618.68
2017-09-29T09:21:32.350Z,97616.80
2017-09-29T09:23:59.835Z,97608.98
2017-09-29T09:26:27.242Z,97609.11
2017-09-29T09:28:54.669Z,97606.04
2017-09-29T09:31:22.510Z,97606.04
2017-09-29T09:33:50.210Z,97598.34
2017-09-29T09:36:17.787Z,97596.52
2017-09-29T09:38:45.353Z,97596.10
2017-09-29T09:41:12.799Z,97589.25
2017-09-29T09:43:40.218Z,97584.99
2017-09-29T09:46:07.678Z,97583.08
2017-09-29T09:48:35.096Z,97580.13
2017-09-29T09:51:02.544Z,97578.63
2017-09-29T09:53:30.340Z,97582.23
2017-09-29T09:55:57.747Z,97575.38
2017-09-29T09:58:25.257Z,97575.16
2017-09-29T10:00:53.121Z,97578.09
2017-09-29T10:03:20.537Z,97577.14
2017-09-29T10:05:47.964Z,97567.46
2017-09-29T10:08:15.602Z,97578.10
2017-09-29T10:10:43.016Z,97571.09
2017-09-29T10:13:10.424Z,97575.16
2017-09-29T10:15:38.475Z,97580.73
2017-09-29T10:18:05.884Z,97570.86
2017-09-29T10:20:33.292Z,97565.83
2017-09-29T10:23:01.152Z,97563.08
2017-09-29T10:25:28.578Z,97556.87
2017-09-29T10:27:55.990Z,97554.86
2017-09-29T10:30:23.447Z,97555.47
2017-09-29T10:32:50.880Z,97549.22
2017-09-29T10:35:18.291Z,97548.40
2017-09-29T10:37:45.732Z,97543.12
2017-09-29T10:40:13.210Z,97537.77
2017-09-29T10:42:40.630Z,97538.28
2017-09-29T10:45:08.459Z,97530.61
2017-09-29T10:47:35.877Z,97532.19
2017-09-29T10:50:03.303Z,97532.92
2017-09-29T10:52:31.142Z,97528.20
2017-09-29T10:54:58.671Z,97523.56
2017-09-29T10:57:26.102Z,97521.01
2017-09-29T10:59:53.739Z,97517.93
2017-09-29T11:02:21.151Z,97510.68
2017-09-29T11:04:48.626Z,97511.84
2017-09-29T11:07:16.277Z,97503.70
2017-09-29T11:09:43.697Z,97503.19
2017-09-29T11:12:11.120Z,97495.14
2017-09-29T11:14:38.640Z,97486.61
2017-09-29T11:17:06.047Z,97487.06
2017-09-29T11:19:33.461Z,97485.05
2017-09-29T11:22:00.913Z,97487.80
2017-09-29T11:24:28.339Z,97482.02
2017-09-29T11:26:55.753Z,97484.45
2017-09-29T11:29:23.234Z,97474.98
2017-09-29T11:31:50.648Z,97477.69
2017-09-29T11:34:18.074Z,97469.98
2017-09-29T11:36:45.879Z,97469.37
2017-09-29T11:39:13.328Z,97469.89
2017-09-29T11:41:40.741Z,97465.69
2017-09-29T11:44:08.498Z,97465.38
2017-09-29T11:46:36.104Z,97462.64
2017-09-29T11:49:03.572Z,97463.34
2017-09-29T11:51:31.014Z,97463.77
2017-09-29T11:53:58.435Z,97457.20
2017-09-29T11:56:25.880Z,97451.73
2017-09-29T11:58:53.488Z,97448.37
2017-09-29T12:01:20.897Z,97444.88
2017-09-29T12:03:48.342Z,97438.31
2017-09-29T12:06:15.780Z,97440.51
2017-09-29T12:08:43.205Z,97438.10
2017-09-29T12:11:10.628Z,97437.85
2017-09-29T12:13:38.083Z,97428.26
2017-09-29T12:16:05.531Z,97419.60
2017-09-29T12:18:32.949Z,97421.40
2017-09-29T12:21:00.417Z,97414.16
2017-09-29T12:23:27.873Z,97415.31
2017-09-29T12:25:55.361Z,97412.69
2017-09-29T12:28:23.603Z,97415.19
2017-09-29T12:30:51.071Z,97408.33
2017-09-29T12:33:18.475Z,97405.80
2017-09-29T12:35:46.155Z,97400.02
2017-09-29T12:38:13.644Z,97398.22
2017-09-29T12:40:41.054Z,97397.48
2017-09-29T12:43:08.507Z,97390.33
2017-09-29T12:45:35.924Z,97385.27
2017-09-29T12:48:03.370Z,97393.89
2017-09-29T12:50:31.212Z,97386.00
2017-09-29T12:52:58.621Z,97388.66
2017-09-29T12:55:26.035Z,97389.26
2017-09-29T12:57:53.497Z,97381.80
2017-09-29T13:00:20.907Z,97383.81
2017-09-29T13:02:48.360Z,97375.59
2017-09-29T13:05:15.994Z,97376.19
2017-09-29T13:07:43.531Z,97378.08
2017-09-29T13:10:10.944Z,97376.58
2017-09-29T13:12:38.712Z,97371.09
2017-09-29T13:15:06.134Z,97369.73
2017-09-29T13:17:33.579Z,97362.56
2017-09-29T13:20:01.195Z,97364.45
2017-09-29T13:22:28.620Z,97363.25
2017-09-29T13:24:56.154Z,97352.12
2017-09-29T13:27:23.666Z,97350.06
2017-09-29T13:29:51.088Z,97346.08
2017-09-29T13:32:18.523Z,97350.36
2017-09-29T13:34:46.448Z,97343.41
2017-09-29T13:37:13.860Z,97340.25
2017-09-29T13:39:41.329Z,97337.46
2017-09-29T13:42:08.802Z,97337.77
2017-09-29T13:44:36.220Z,97338.95
2017-09-29T13:47:03.647Z,97334.20
2017-09-29T13:49:31.082Z,97333.22
2017-09-29T13:51:58.506Z,97341.58
2017-09-29T13:54:25.916Z,97343.50
2017-09-29T13:56:53.413Z,97347.19
2017-09-29T13:59:20.821Z,97345.27
2017-09-29T14:01:48.230Z,97337.80
2017-09-29T14:04:16.133Z,97343.72
2017-09-29T14:06:43.554Z,97338.66
2017-09-29T14:09:10.984Z,97336.31
2017-09-29T14:11:38.526Z,97335.36
2017-09-29T14:14:06.048Z,97333.99
2017-09-29T14:16:33.471Z,97332.20
2017-09-29T14:19:00.952Z,97330.22
2017-09-29T14:21:28.361Z,97327.70
2017-09-29T14:23:55.766Z,97327.61
2017-09-29T14:26:23.217Z,97327.36
2017-09-29T14:28:51.277Z,97326.41
2017-09-29T14:31:18.684Z,97320.06
2017-09-29T14:33:46.146Z,97320.79
2017-09-29T14:36:13.690Z,97312.78
2017-09-29T14:38:41.175Z,97315.52
2017-09-29T14:41:09.009Z,97313.09
2017-09-29T14:43:36.440Z,97307.72
2017-09-29T14:46:03.872Z,97307.91
2017-09-29T14:48:31.482Z,97306.95
2017-09-29T14:50:59.007Z,97300.01
2017-09-29T14:53:26.417Z,97300.01
2017-09-29T14:55:54.363Z,97298.08
2017-09-29T14:58:21.789Z,97303.56
2017-09-29T15:00:49.199Z,97297.78
2017-09-29T15:03:16.634Z,97302.33
2017-09-29T15:05:44.054Z,97306.86
2017-09-29T15:08:11.458Z,97300.95
2017-09-29T15:10:39.510Z,97300.01
2017-09-29T15:13:06.991Z,97299.45
2017-09-29T15:15:34.399Z,97297.14
2017-09-29T15:18:01.968Z,97292.17
2017-09-29T15:20:29.379Z,97294.39
2017-09-29T15:22:56.790Z,97294.27
2017-09-29T15:25:24.247Z,97293.67
2017-09-29T15:27:51.716Z,97295.17
2017-09-29T15:30:19.117Z,97299.80
2017-09-29T15:32:46.725Z,97304.94
2017-09-29T15:35:14.141Z,97305.80
2017-09-29T15:37:41.554Z,97305.67
2017-09-29T15:40:09.014Z,97301.00
2017-09-29T15:42:36.427Z,97302.02
2017-09-29T15:45:03.888Z,97303.05
2017-09-29T15:47:31.987Z,97295.04
2017-09-29T15:49:59.421Z,97295.77
2017-09-29T15:52:26.905Z,97301.03
2017-09-29T15:54:54.360Z,97299.66
2017-09-29T15:57:21.772Z,97297.22
2017-09-29T15:59:49.269Z,97297.22
2017-09-29T16:02:16.721Z,97300.39
2017-09-29T16:04:44.179Z,97304.72
2017-09-29T16:07:11.596Z,97304.30
2017-09-29T16:09:39.288Z,97306.91
2017-09-29T16:12:07.218Z,97308.61
2017-09-29T16:14:34.644Z,97301.55
2017-09-29T16:17:02.102Z,97311.03
2017-09-29T16:19:29.531Z,97303.22
2017-09-29T16:21:56.986Z,97307.34
2017-09-29T16:24:24.548Z,97312.00
2017-09-29T16:26:52.019Z,97303.30
2017-09-29T16:29:19.453Z,97306.65
2017-09-29T16:31:46.895Z,97304.11
2017-09-29T16:34:14.317Z,97312.13
2017-09-29T16:36:41.737Z,97311.70
2017-09-29T16:39:09.276Z,97306.21
2017-09-29T16:41:36.747Z,97305.61
2017-09-29T16:44:04.172Z,97307.92
2017-09-29T16:46:31.626Z,97306.00
2017-09-29T16:48:59.047Z,97307.50
2017-09-29T16:51:26.454Z,97306.00
2017-09-29T16:53:54.135Z,97307.62
2017-09-29T16:56:21.554Z,97310.45
2017-09-29T16:58:48.980Z,97298.84
2017-09-29T17:01:16.825Z,97303.39
2017-09-29T17:03:45.286Z,97309.30
2017-09-29T17:06:13.098Z,97304.33
2017-09-29T17:08:40.604Z,97307.50
2017-09-29T17:11:08.350Z,97306.86
2017-09-29T17:13:35.813Z,97310.84
2017-09-29T17:16:03.331Z,97308.41
2017-09-29T17:18:30.765Z,97306.64
2017-09-29T17:20:58.258Z,97304.63
2017-09-29T17:23:25.738Z,97315.60
2017-09-29T17:25:53.213Z,97312.77
2017-09-29T17:28:20.706Z,97314.73
2017-09-29T17:30:48.240Z,97317.91
2017-09-29T17:33:15.707Z,97313.41
2017-09-29T17:35:43.180Z,97317.61
2017-09-29T17:38:11.146Z,97317.70
2017-09-29T17:40:38.578Z,97321.42
2017-09-29T17:43:06.060Z,97320.87
2017-09-29T17:45:33.558Z,97317.52
2017-09-29T17:48:01.032Z,97321.13
2017-09-29T17:50:28.527Z,97315.60
2017-09-29T17:52:59.903Z,97324.08
2017-09-29T17:55:27.369Z,97323.66
2017-09-29T17:57:55.797Z,97326.57
2017-09-29T18:00:23.622Z,97326.48
2017-09-29T18:02:51.087Z,97325.92
2017-09-29T18:05:18.727Z,97330.17
2017-09-29T18:07:46.642Z,97325.83
2017-09-29T18:10:14.149Z,97327.51
2017-09-29T18:12:41.751Z,97328.88
2017-09-29T18:15:09.343Z,97334.79
2017-09-29T18:17:36.823Z,97335.61
2017-09-29T18:20:05.096Z,97337.20
2017-09-29T18:22:33.477Z,97337.33
2017-09-29T18:25:00.904Z,97334.88
2017-09-29T18:27:28.306Z,97337.92
2017-09-29T18:29:55.813Z,97334.23
2017-09-29T18:32:23.650Z,97336.98
2017-09-29T18:34:51.226Z,97329.70
2017-09-29T18:37:18.786Z,97334.79
2017-09-29T18:39:46.623Z,97327.95
2017-09-29T18:42:14.468Z,97328.67
2017-09-29T18:47:45.854Z,97329.52
2017-09-29T18:50:13.724Z,97325.20
2017-09-29T18:52:41.274Z,97323.19
2017-09-29T18:55:09.331Z,97315.16
2017-09-29T18:57:36.993Z,97317.36
2017-09-29T19:00:05.505Z,97317.36
2017-09-29T19:02:33.032Z,97317.70
2017-09-29T19:05:00.841Z,97317.48
2017-09-29T19:07:28.318Z,97318.00
2017-09-29T19:09:56.109Z,97312.52
2017-09-29T19:12:24.196Z,97315.98
2017-09-29T19:14:51.608Z,97303.25
2017-09-29T19:17:19.020Z,97308.31
2017-09-29T19:19:46.488Z,97309.52
2017-09-29T19:22:13.990Z,97305.48
2017-09-29T19:24:41.392Z,97308.23
2017-09-29T19:27:09.168Z,97305.78
2017-09-29T19:29:36.578Z,97310.75
2017-09-29T19:32:05.041Z,97304.54
2017-09-29T19:34:32.917Z,97296.73
2017-09-29T19:37:00.459Z,97295.76
2017-09-29T19:39:28.286Z,97297.98
2017-09-29T19:41:55.887Z,97303.81
2017-09-29T19:44:23.717Z,97304.45
2017-09-29T19:46:51.584Z,97299.92
2017-09-29T19:49:19.266Z,97303.69
2017-09-29T19:51:47.217Z,97309.72
2017-09-29T19:54:14.715Z,97312.56
2017-09-29T19:56:42.839Z,97304.33
2017-09-29T19:59:10.429Z,97306.34
2017-09-29T20:01:37.976Z,97299.80
2017-09-29T20:04:06.022Z,97299.27
2017-09-29T20:06:33.633Z,97299.15
2017-09-29T20:09:01.115Z,97299.27
2017-09-29T20:11:28.618Z,97301.89
2017-09-29T20:13:56.081Z,97300.94
2017-09-29T20:16:23.628Z,97302.53
2017-09-29T20:18:51.163Z,97301.50
2017-09-29T20:21:18.635Z,97302.78
2017-09-29T20:23:46.299Z,97306.59
2017-09-29T20:26:13.908Z,97304.25
2017-09-29T20:28:41.360Z,97302.48
2017-09-29T20:31:08.907Z,97304.80
2017-09-29T20:33:36.399Z,97300.91
2017-09-29T20:36:03.897Z,97293.97
2017-09-29T20:38:31.423Z,97295.77
2017-09-29T20:40:59.293Z,97289.26
2017-09-29T20:43:26.759Z,97290.97
2017-09-29T20:45:54.232Z,97281.80
2017-09-29T20:48:21.724Z,97284.55
2017-09-29T20:50:49.195Z,97284.12
2017-09-29T20:53:16.749Z,97286.95
2017-09-29T20:55:44.415Z,97286.44
2017-09-29T20:58:11.884Z,97280.69
2017-09-29T21:00:39.354Z,97282.88
2017-09-29T21:03:07.339Z,97281.59
2017-09-29T21:05:34.841Z,97282.36
2017-09-29T21:08:02.412Z,97288.27
2017-09-29T21:10:30.515Z,97284.03
2017-09-29T21:12:57.974Z,97273.71
2017-09-29T21:15:25.436Z,97273.11
2017-09-29T21:17:53.359Z,97276.58
2017-09-29T21:20:20.833Z,97272.27
2017-09-29T21:22:48.320Z,97272.69
2017-09-29T21:25:16.187Z,97265.41
2017-09-29T21:27:43.651Z,97273.84
2017-09-29T21:30:11.102Z,97270.04
2017-09-29T21:32:38.620Z,97266.26
2017-09-29T21:35:06.126Z,97271.19
2017-09-29T21:37:33.586Z,97272.98
2017-09-29T21:40:01.088Z,97268.67
2017-09-29T21:42:28.557Z,97269.81
2017-09-29T21:44:56.017Z,97267.30
2017-09-29T21:47:23.813Z,97269.14
2017-09-29T21:49:51.273Z,97260.27
2017-09-29T21:52:18.748Z,97260.39
2017-09-29T21:54:46.327Z,97259.02
2017-09-29T21:57:13.790Z,97253.63
2017-09-29T21:59:41.263Z,97250.25
2017-09-29T22:02:08.780Z,97252.69
2017-09-29T22:04:36.233Z,97252.39
2017-09-29T22:07:03.711Z,97245.62
2017-09-29T22:09:31.211Z,97243.31
2017-09-29T22:11:58.693Z,97236.88
2017-09-29T22:14:26.161Z,97232.98
2017-09-29T22:16:53.740Z,97228.97
2017-09-29T22:19:21.191Z,97236.25
2017-09-29T22:21:48.639Z,97227.94
2017-09-29T22:24:16.189Z,97226.23
2017-09-29T22:26:43.770Z,97218.52
2017-09-29T22:29:11.267Z,97216.77
2017-09-29T22:31:38.774Z,97218.00
2017-09-29T22:34:06.280Z,97215.39
2017-09-29T22:36:33.791Z,97217.91
2017-09-29T22:39:02.021Z,97205.47
2017-09-29T22:41:29.487Z,97206.73
2017-09-29T22:43:56.968Z,97210.64
2017-09-29T22:46:24.565Z,97206.84
2017-09-29T22:48:52.118Z,97200.83
2017-09-29T22:51:20.392Z,97198.22
2017-09-29T22:53:48.080Z,97203.37
2017-09-29T22:56:15.551Z,97200.23
2017-09-29T22:58:43.007Z,97202.42
2017-09-29T23:01:10.669Z,97201.60
2017-09-29T23:03:38.130Z,97197.71
2017-09-29T23:06:05.631Z,97194.45
2017-09-29T23:08:33.425Z,97192.23
2017-09-29T23:11:00.895Z,97186.23
2017-09-29T23:13:28.359Z,97184.13
2017-09-29T23:15:56.157Z,97182.34
2017-09-29T23:18:23.622Z,97178.40
2017-09-29T23:20:51.080Z,97173.47
2017-09-29T23:23:18.641Z,97171.38
2017-09-29T23:25:46.128Z,97166.83
2017-09-29T23:28:13.666Z,97166.41
2017-09-29T23:30:41.215Z,97159.55
2017-09-29T23:33:08.678Z,97155.14
2017-09-29T23:35:36.146Z,97156.94
2017-09-29T23:38:03.645Z,97155.02
2017-09-29T23:40:31.103Z,97151.16
2017-09-29T23:42:58.567Z,97150.39
2017-09-29T23:45:26.067Z,97147.34
2017-09-29T23:47:53.554Z,97147.99
2017-09-29T23:50:21.038Z,97151.16
2017-09-29T23:52:48.534Z,97144.73
2017-09-29T23:55:16.000Z,97152.61
2017-09-29T23:57:43.549Z,97151.98
